createdAt,value
2018-04-17T00:00:29.965Z,8.74
2018-04-17T00:02:55.776Z,8.77
2018-04-17T00:05:21.579Z,8.82
2018-04-17T00:07:47.370Z,8.84
2018-04-17T00:10:13.202Z,8.82
2018-04-17T00:12:38.991Z,8.74
2018-04-17T00:15:04.954Z,8.74
2018-04-17T00:17:30.745Z,8.66
2018-04-17T00:19:56.537Z,8.64
2018-04-17T00:22:22.354Z,8.60
2018-04-17T00:24:48.150Z,8.59
2018-04-17T00:27:13.929Z,8.53
2018-04-17T00:29:39.738Z,8.50
2018-04-17T00:32:05.529Z,8.42
2018-04-17T00:34:31.317Z,8.42
2018-04-17T00:36:57.113Z,8.29
2018-04-17T00:39:22.900Z,8.22
2018-04-17T00:41:48.743Z,8.28
2018-04-17T00:44:14.550Z,8.24
2018-04-17T00:46:40.346Z,8.27
2018-04-17T00:49:06.160Z,8.22
2018-04-17T00:51:31.977Z,8.27
2018-04-17T00:53:58.784Z,8.33
2018-04-17T00:56:24.589Z,8.36
2018-04-17T00:58:50.377Z,8.19
2018-04-17T01:01:16.193Z,8.17
2018-04-17T01:03:42.259Z,8.14
2018-04-17T01:06:08.076Z,8.17
2018-04-17T01:08:33.906Z,8.15
2018-04-17T01:10:59.697Z,8.14
2018-04-17T01:13:25.473Z,7.99
2018-04-17T01:15:51.261Z,8.02
2018-04-17T01:18:17.078Z,7.87
2018-04-17T01:20:42.864Z,7.91
2018-04-17T01:23:08.637Z,7.86
2018-04-17T01:25:34.433Z,7.87
2018-04-17T01:28:00.228Z,7.95
2018-04-17T01:30:26.023Z,7.93
2018-04-17T01:32:51.821Z,7.81
2018-04-17T01:35:17.616Z,7.76
2018-04-17T01:37:43.417Z,7.81
2018-04-17T01:40:09.228Z,7.82
2018-04-17T01:42:35.026Z,7.75
2018-04-17T01:45:00.826Z,7.78
2018-04-17T01:47:26.642Z,7.76
2018-04-17T01:49:52.436Z,7.79
2018-04-17T01:52:18.240Z,7.72
2018-04-17T01:54:44.070Z,7.67
2018-04-17T01:57:09.859Z,7.64
2018-04-17T01:59:35.654Z,7.67
2018-04-17T02:02:01.499Z,7.70
2018-04-17T02:04:27.309Z,7.63
2018-04-17T02:06:53.102Z,7.54
2018-04-17T02:09:18.914Z,7.53
2018-04-17T02:11:44.697Z,7.48
2018-04-17T02:14:10.488Z,7.46
2018-04-17T02:16:36.322Z,7.42
2018-04-17T02:19:02.121Z,7.40
2018-04-17T02:21:27.904Z,7.42
2018-04-17T02:23:53.709Z,7.37
2018-04-17T02:26:19.492Z,7.34
2018-04-17T02:28:45.270Z,7.35
2018-04-17T02:31:11.069Z,7.35
2018-04-17T02:33:36.861Z,7.27
2018-04-17T02:36:02.705Z,7.27
2018-04-17T02:38:28.864Z,7.25
2018-04-17T02:40:54.645Z,7.28
2018-04-17T02:43:20.427Z,7.30
2018-04-17T02:45:46.248Z,7.28
2018-04-17T02:48:12.052Z,7.26
2018-04-17T02:50:37.866Z,7.22
2018-04-17T02:53:03.657Z,7.26
2018-04-17T02:55:29.474Z,7.29
2018-04-17T02:57:55.258Z,7.28
2018-04-17T03:00:21.050Z,7.22
2018-04-17T03:02:46.853Z,7.18
2018-04-17T03:05:12.643Z,6.99
2018-04-17T03:07:38.429Z,7.13
2018-04-17T03:10:04.243Z,7.08
2018-04-17T03:12:30.057Z,7.10
2018-04-17T03:14:55.861Z,7.05
2018-04-17T03:17:21.642Z,7.01
2018-04-17T03:19:47.454Z,7.05
2018-04-17T03:22:13.237Z,7.07
2018-04-17T03:24:39.029Z,7.07
2018-04-17T03:27:04.851Z,7.01
2018-04-17T03:29:30.653Z,7.04
2018-04-17T03:31:56.428Z,7.13
2018-04-17T03:34:22.236Z,7.03
2018-04-17T03:36:48.028Z,7.05
2018-04-17T03:39:13.871Z,7.02
2018-04-17T03:41:39.666Z,6.95
2018-04-17T03:44:05.472Z,6.99
2018-04-17T03:46:31.264Z,6.97
2018-04-17T03:48:57.057Z,6.94
2018-04-17T03:51:22.874Z,6.97
2018-04-17T03:53:48.657Z,6.95
2018-04-17T03:56:14.445Z,7.01
2018-04-17T03:58:40.266Z,6.99
2018-04-17T04:01:06.117Z,7.02
2018-04-17T04:03:31.914Z,7.04
2018-04-17T04:05:57.727Z,7.03
2018-04-17T04:08:23.525Z,7.02
2018-04-17T04:10:49.346Z,6.99
2018-04-17T04:13:15.145Z,7.00
2018-04-17T04:15:40.926Z,7.02
2018-04-17T04:18:19.206Z,7.01
2018-04-17T04:23:58.480Z,7.02
2018-04-17T04:26:30.302Z,6.98
2018-04-17T04:28:56.129Z,7.01
2018-04-17T04:31:22.132Z,7.03
2018-04-17T04:33:47.950Z,7.06
2018-04-17T04:36:13.986Z,7.02
2018-04-17T04:38:39.792Z,7.01
2018-04-17T04:41:05.577Z,7.02
2018-04-17T04:43:31.661Z,7.03
2018-04-17T04:45:57.449Z,7.03
2018-04-17T04:48:23.249Z,7.03
2018-04-17T04:50:49.092Z,7.04
2018-04-17T04:53:14.881Z,7.04
2018-04-17T04:55:40.677Z,7.04
2018-04-17T04:58:06.515Z,7.03
2018-04-17T05:00:32.314Z,7.07
2018-04-17T05:02:58.118Z,7.08
2018-04-17T05:05:23.946Z,7.12
2018-04-17T05:07:49.741Z,7.17
2018-04-17T05:10:15.557Z,7.16
2018-04-17T05:12:41.374Z,7.15
2018-04-17T05:15:07.165Z,7.17
2018-04-17T05:17:32.967Z,7.18
2018-04-17T05:19:58.781Z,7.19
2018-04-17T05:22:24.582Z,7.23
2018-04-17T05:24:50.362Z,7.24
2018-04-17T05:27:16.149Z,7.25
2018-04-17T05:29:41.941Z,7.30
2018-04-17T05:34:40.476Z,7.39
2018-04-17T05:37:06.281Z,7.42
2018-04-17T05:39:32.110Z,7.48
2018-04-17T05:41:57.910Z,7.51
2018-04-17T05:44:23.696Z,7.61
2018-04-17T05:46:49.480Z,7.69
2018-04-17T05:49:15.266Z,7.74
2018-04-17T05:51:41.071Z,7.85
2018-04-17T05:54:06.842Z,7.92
2018-04-17T05:56:32.630Z,8.07
2018-04-17T05:58:58.452Z,8.33
2018-04-17T06:01:24.270Z,8.40
2018-04-17T06:03:50.045Z,8.37
2018-04-17T06:06:15.833Z,8.86
2018-04-17T06:08:41.645Z,8.69
2018-04-17T06:11:07.422Z,8.80
2018-04-17T06:13:33.283Z,8.89
2018-04-17T06:15:59.075Z,8.81
2018-04-17T06:18:24.852Z,8.83
2018-04-17T06:20:50.665Z,8.88
2018-04-17T06:23:16.475Z,8.96
2018-04-17T06:25:42.273Z,9.01
2018-04-17T06:28:08.210Z,9.08
2018-04-17T06:30:34.020Z,9.17
2018-04-17T06:32:59.814Z,9.28
2018-04-17T06:35:25.608Z,9.35
2018-04-17T06:37:51.394Z,9.42
2018-04-17T06:40:17.197Z,9.48
2018-04-17T06:42:42.999Z,9.60
2018-04-17T06:45:08.779Z,9.72
2018-04-17T06:47:34.631Z,9.79
2018-04-17T06:50:00.758Z,9.93
2018-04-17T06:52:26.541Z,10.05
2018-04-17T06:54:52.345Z,10.12
2018-04-17T06:57:18.186Z,10.24
2018-04-17T06:59:43.982Z,10.32
2018-04-17T07:02:09.788Z,10.51
2018-04-17T07:04:35.598Z,11.00
2018-04-17T07:07:01.409Z,11.21
2018-04-17T07:09:27.197Z,12.86
2018-04-17T07:11:52.974Z,11.79
2018-04-17T07:14:18.773Z,11.73
2018-04-17T07:16:44.571Z,11.43
2018-04-17T07:19:10.368Z,11.47
2018-04-17T07:21:36.175Z,11.65
2018-04-17T07:24:01.990Z,11.52
2018-04-17T07:26:27.771Z,11.62
2018-04-17T07:28:53.578Z,11.83
2018-04-17T07:31:19.370Z,11.96
2018-04-17T07:33:45.169Z,12.36
2018-04-17T07:36:11.014Z,12.61
2018-04-17T07:38:36.807Z,12.22
2018-04-17T07:41:03.039Z,12.17
2018-04-17T07:43:28.844Z,12.45
2018-04-17T07:45:54.650Z,12.41
2018-04-17T07:48:32.878Z,12.50
2018-04-17T07:50:58.714Z,12.46
2018-04-17T07:53:24.531Z,12.66
2018-04-17T07:55:50.445Z,12.64
2018-04-17T07:58:16.235Z,12.62
2018-04-17T08:00:42.062Z,12.72
2018-04-17T08:03:07.886Z,12.72
2018-04-17T08:05:33.702Z,13.06
2018-04-17T08:07:59.508Z,12.87
2018-04-17T08:10:25.307Z,12.86
2018-04-17T08:12:51.135Z,13.03
2018-04-17T08:15:16.938Z,13.11
2018-04-17T08:17:42.725Z,13.17
2018-04-17T08:20:08.534Z,13.36
2018-04-17T08:22:34.341Z,13.37
2018-04-17T08:25:00.166Z,13.43
2018-04-17T08:27:25.962Z,13.52
2018-04-17T08:29:51.763Z,13.57
2018-04-17T08:32:17.583Z,13.46
2018-04-17T08:34:43.367Z,13.54
2018-04-17T08:37:09.175Z,13.53
2018-04-17T08:39:34.978Z,13.65
2018-04-17T08:42:00.760Z,14.00
2018-04-17T08:44:26.565Z,13.98
2018-04-17T08:46:52.362Z,13.69
2018-04-17T08:49:18.147Z,13.43
2018-04-17T08:51:44.163Z,13.85
2018-04-17T08:54:09.994Z,13.78
2018-04-17T08:56:35.813Z,13.85
2018-04-17T08:59:01.641Z,14.05
2018-04-17T09:01:27.454Z,13.91
2018-04-17T09:03:53.294Z,14.23
2018-04-17T09:06:19.090Z,14.09
2018-04-17T09:08:44.891Z,14.38
2018-04-17T09:11:11.078Z,14.58
2018-04-17T09:13:36.893Z,14.57
2018-04-17T09:16:02.689Z,14.51
2018-04-17T09:18:28.502Z,14.54
2018-04-17T09:20:54.654Z,14.28
2018-04-17T09:23:20.515Z,14.34
2018-04-17T09:25:46.617Z,14.53
2018-04-17T09:28:12.430Z,14.60
2018-04-17T09:30:38.218Z,14.48
2018-04-17T09:33:04.032Z,14.77
2018-04-17T09:35:29.826Z,15.30
2018-04-17T09:37:55.619Z,14.91
2018-04-17T09:40:21.651Z,14.73
2018-04-17T09:42:47.448Z,15.16
2018-04-17T09:45:13.251Z,15.17
2018-04-17T09:47:39.068Z,14.90
2018-04-17T09:50:04.874Z,15.51
2018-04-17T09:52:30.684Z,15.23
2018-04-17T09:54:56.486Z,14.84
2018-04-17T09:57:22.269Z,15.05
2018-04-17T09:59:48.183Z,15.16
2018-04-17T10:02:13.985Z,15.02
2018-04-17T10:04:39.803Z,15.52
2018-04-17T10:07:05.643Z,15.47
2018-04-17T10:09:31.494Z,15.44
2018-04-17T10:11:57.327Z,15.52
2018-04-17T10:14:23.174Z,15.40
2018-04-17T10:16:49.009Z,15.42
2018-04-17T10:19:14.852Z,15.29
2018-04-17T10:21:40.693Z,15.43
2018-04-17T10:24:06.517Z,15.62
2018-04-17T10:26:32.518Z,15.73
2018-04-17T10:28:58.412Z,15.85
2018-04-17T10:31:24.249Z,16.08
2018-04-17T10:33:50.255Z,16.16
2018-04-17T10:36:52.767Z,16.70
2018-04-17T10:39:19.601Z,16.33
2018-04-17T10:41:45.469Z,16.59
2018-04-17T10:44:11.933Z,16.44
2018-04-17T10:46:37.964Z,16.60
2018-04-17T10:49:03.837Z,16.64
2018-04-17T10:51:29.700Z,16.34
2018-04-17T10:53:55.661Z,15.96
2018-04-17T10:56:21.465Z,16.07
2018-04-17T10:58:47.347Z,16.35
2018-04-17T11:01:13.446Z,16.57
2018-04-17T11:03:39.237Z,16.59
2018-04-17T11:06:05.085Z,17.07
2018-04-17T11:08:30.997Z,16.80
2018-04-17T11:10:57.150Z,16.40
2018-04-17T11:13:23.766Z,16.79
2018-04-17T11:15:49.939Z,17.03
2018-04-17T11:18:15.979Z,17.11
2018-04-17T11:20:42.634Z,16.78
2018-04-17T11:23:08.458Z,16.51
2018-04-17T11:25:35.246Z,16.57
2018-04-17T11:28:01.948Z,16.81
2018-04-17T11:30:27.802Z,16.89
2018-04-17T11:32:54.068Z,17.39
2018-04-17T11:35:21.509Z,17.76
2018-04-17T11:37:47.349Z,17.47
2018-04-17T11:40:13.949Z,17.20
2018-04-17T11:42:39.775Z,17.19
2018-04-17T11:45:05.605Z,17.02
2018-04-17T11:47:34.940Z,17.01
2018-04-17T11:50:00.745Z,17.17
2018-04-17T11:52:26.637Z,17.23
2018-04-17T11:54:52.450Z,17.44
2018-04-17T11:57:18.333Z,17.36
2018-04-17T11:59:45.010Z,17.44
2018-04-17T12:02:11.376Z,17.29
2018-04-17T12:04:37.226Z,17.05
2018-04-17T12:07:04.416Z,17.14
2018-04-17T12:09:30.518Z,17.26
2018-04-17T12:11:56.362Z,17.32
2018-04-17T12:14:22.205Z,17.67
2018-04-17T12:16:48.055Z,17.87
2018-04-17T12:19:14.460Z,17.98
2018-04-17T12:21:40.313Z,18.08
2018-04-17T12:24:07.006Z,18.53
2018-04-17T12:26:32.840Z,18.29
2018-04-17T12:28:58.720Z,18.76
2018-04-17T12:31:24.525Z,18.85
2018-04-17T12:33:50.339Z,19.18
2018-04-17T12:36:16.149Z,19.06
2018-04-17T12:38:41.977Z,18.80
2018-04-17T12:41:07.834Z,19.15
2018-04-17T12:43:33.628Z,19.37
2018-04-17T12:45:59.409Z,19.13
2018-04-17T12:48:25.220Z,20.11
2018-04-17T12:50:51.038Z,19.47
2018-04-17T12:53:16.823Z,19.86
2018-04-17T12:55:42.622Z,19.64
2018-04-17T12:58:08.422Z,19.51
2018-04-17T13:00:34.901Z,19.35
2018-04-17T13:03:00.713Z,18.86
2018-04-17T13:05:26.551Z,18.55
2018-04-17T13:07:52.348Z,19.56
2018-04-17T13:10:18.202Z,19.64
2018-04-17T13:12:43.991Z,20.04
2018-04-17T13:15:09.820Z,19.96
2018-04-17T13:17:35.657Z,20.22
2018-04-17T13:20:01.452Z,19.78
2018-04-17T13:22:27.262Z,20.40
2018-04-17T13:24:53.081Z,20.50
2018-04-17T13:27:18.867Z,20.84
2018-04-17T13:29:44.644Z,21.64
2018-04-17T13:32:10.482Z,21.03
2018-04-17T13:34:36.265Z,21.07
2018-04-17T13:37:02.058Z,21.05
2018-04-17T13:39:27.861Z,20.97
2018-04-17T13:41:53.666Z,20.81
2018-04-17T13:44:19.605Z,21.30
2018-04-17T13:46:45.401Z,21.44
2018-04-17T13:49:11.200Z,21.33
2018-04-17T13:51:36.981Z,21.25
2018-04-17T13:54:02.809Z,21.38
2018-04-17T13:56:28.593Z,21.27
2018-04-17T13:58:54.389Z,21.54
2018-04-17T14:01:20.165Z,21.21
2018-04-17T14:03:45.949Z,21.16
2018-04-17T14:06:11.757Z,20.85
2018-04-17T14:08:37.550Z,21.59
2018-04-17T14:11:03.360Z,21.15
2018-04-17T14:13:29.162Z,21.63
2018-04-17T14:15:54.954Z,21.09
2018-04-17T14:18:20.748Z,21.53
2018-04-17T14:20:46.526Z,21.50
2018-04-17T14:23:12.354Z,21.57
2018-04-17T14:25:38.156Z,21.29
2018-04-17T14:28:03.956Z,21.79
2018-04-17T14:30:29.787Z,21.56
2018-04-17T14:32:55.566Z,21.31
2018-04-17T14:35:21.363Z,21.36
2018-04-17T14:37:47.173Z,21.36
2018-04-17T14:40:12.969Z,21.37
2018-04-17T14:42:38.756Z,21.81
2018-04-17T14:45:04.553Z,21.79
2018-04-17T14:47:30.333Z,21.23
2018-04-17T14:49:56.143Z,20.44
2018-04-17T14:52:28.922Z,21.12
2018-04-17T14:54:54.733Z,20.89
2018-04-17T14:57:20.522Z,20.79
2018-04-17T14:59:46.316Z,20.65
2018-04-17T15:02:12.101Z,20.71
2018-04-17T15:04:37.989Z,20.87
2018-04-17T15:07:03.778Z,20.55
2018-04-17T15:09:29.557Z,20.66
2018-04-17T15:11:55.383Z,20.89
2018-04-17T15:14:21.170Z,21.24
2018-04-17T15:16:46.956Z,21.48
2018-04-17T15:19:12.785Z,21.17
2018-04-17T15:21:38.578Z,20.70
2018-04-17T15:24:04.357Z,20.66
2018-04-17T15:26:30.162Z,20.77
2018-04-17T15:28:55.963Z,21.24
2018-04-17T15:31:21.759Z,20.87
2018-04-17T15:33:47.558Z,20.63
2018-04-17T15:36:13.353Z,20.59
2018-04-17T15:38:39.161Z,20.76
2018-04-17T15:41:04.970Z,20.81
2018-04-17T15:43:30.785Z,20.80
2018-04-17T15:45:56.603Z,20.59
2018-04-17T15:48:22.383Z,20.24
2018-04-17T15:50:48.252Z,20.75
2018-04-17T15:53:14.109Z,20.58
2018-04-17T15:55:39.902Z,20.73
2018-04-17T15:58:05.682Z,20.50
2018-04-17T16:00:31.473Z,20.24
2018-04-17T16:02:57.254Z,20.39
2018-04-17T16:05:23.037Z,20.43
2018-04-17T16:07:50.678Z,20.45
2018-04-17T16:10:16.445Z,20.67
2018-04-17T16:12:42.251Z,20.39
2018-04-17T16:15:08.046Z,20.30
2018-04-17T16:17:33.834Z,19.99
2018-04-17T16:19:59.633Z,19.47
2018-04-17T16:22:25.595Z,19.54
2018-04-17T16:24:51.389Z,19.54
2018-04-17T16:27:17.198Z,19.54
2018-04-17T16:29:43.029Z,19.52
2018-04-17T16:32:08.809Z,19.43
2018-04-17T16:34:34.592Z,19.41
2018-04-17T16:37:00.432Z,19.48
2018-04-17T16:39:26.223Z,19.01
2018-04-17T16:41:52.031Z,19.26
2018-04-17T16:44:18.017Z,19.28
2018-04-17T16:46:43.846Z,19.55
2018-04-17T16:49:09.641Z,19.43
2018-04-17T16:51:35.469Z,19.46
2018-04-17T16:54:01.303Z,19.28
2018-04-17T16:56:27.222Z,19.40
2018-04-17T16:58:53.159Z,19.23
2018-04-17T17:01:19.042Z,18.97
2018-04-17T17:03:44.861Z,18.99
2018-04-17T17:06:10.661Z,19.02
2018-04-17T17:08:37.335Z,19.20
2018-04-17T17:11:03.265Z,19.00
2018-04-17T17:13:29.354Z,19.12
2018-04-17T17:15:55.234Z,19.14
2018-04-17T17:18:21.812Z,19.01
2018-04-17T17:20:47.804Z,18.79
2018-04-17T17:23:14.004Z,18.81
2018-04-17T17:25:40.200Z,18.79
2018-04-17T17:28:06.223Z,18.59
2018-04-17T17:30:33.351Z,18.59
2018-04-17T17:33:00.137Z,18.73
2018-04-17T17:35:26.051Z,18.65
2018-04-17T17:37:51.958Z,18.78
2018-04-17T17:40:18.076Z,18.92
2018-04-17T17:42:44.127Z,18.75
2018-04-17T17:45:10.106Z,18.58
2018-04-17T17:47:36.764Z,18.35
2018-04-17T17:50:03.286Z,18.23
2018-04-17T17:52:29.210Z,18.10
2018-04-17T17:54:55.180Z,18.02
2018-04-17T17:57:21.761Z,18.01
2018-04-17T17:59:47.726Z,18.07
2018-04-17T18:02:13.663Z,18.01
2018-04-17T18:04:39.527Z,18.04
2018-04-17T18:07:05.758Z,17.98
2018-04-17T18:09:31.631Z,17.91
2018-04-17T18:11:58.970Z,17.96
2018-04-17T18:14:25.855Z,17.94
2018-04-17T18:16:52.761Z,17.95
2018-04-17T18:19:18.998Z,17.97
2018-04-17T18:21:45.630Z,17.89
2018-04-17T18:24:11.470Z,18.01
2018-04-17T18:26:37.512Z,17.89
2018-04-17T18:29:03.321Z,17.90
2018-04-17T18:31:29.218Z,17.86
2018-04-17T18:33:56.152Z,17.70
2018-04-17T18:36:23.067Z,17.72
2018-04-17T18:38:49.065Z,17.62
2018-04-17T18:41:15.021Z,17.52
2018-04-17T18:43:40.879Z,17.50
2018-04-17T18:46:06.902Z,17.64
2018-04-17T18:48:32.718Z,17.47
2018-04-17T18:50:58.708Z,17.32
2018-04-17T18:53:25.294Z,17.17
2018-04-17T18:55:51.314Z,17.02
2018-04-17T18:58:17.482Z,16.86
2018-04-17T19:00:43.671Z,16.81
2018-04-17T19:03:09.907Z,16.73
2018-04-17T19:05:35.841Z,16.65
2018-04-17T19:08:01.811Z,16.75
2018-04-17T19:10:28.385Z,16.85
2018-04-17T19:12:54.254Z,16.91
2018-04-17T19:15:20.376Z,16.78
2018-04-17T19:17:46.267Z,16.63
2018-04-17T19:20:13.205Z,16.80
2018-04-17T19:22:39.258Z,16.95
2018-04-17T19:25:05.215Z,17.11
2018-04-17T19:27:31.156Z,16.83
2018-04-17T19:29:57.504Z,16.80
2018-04-17T19:32:23.585Z,16.75
2018-04-17T19:34:49.445Z,16.57
2018-04-17T19:37:15.382Z,16.60
2018-04-17T19:39:41.336Z,16.59
2018-04-17T19:42:07.444Z,16.61
2018-04-17T19:44:34.198Z,16.59
2018-04-17T19:47:01.613Z,16.53
2018-04-17T19:49:29.225Z,16.43
2018-04-17T19:51:56.013Z,16.36
2018-04-17T19:54:25.148Z,16.39
2018-04-17T19:56:52.714Z,16.22
2018-04-17T19:59:18.592Z,16.18
2018-04-17T20:01:44.568Z,16.18
2018-04-17T20:04:10.429Z,16.25
2018-04-17T20:06:36.800Z,16.19
2018-04-17T20:09:04.536Z,16.25
2018-04-17T20:11:31.340Z,16.09
2018-04-17T20:13:57.936Z,16.07
2018-04-17T20:16:24.098Z,15.94
2018-04-17T20:18:50.443Z,15.92
2018-04-17T20:21:16.342Z,15.89
2018-04-17T20:23:42.691Z,15.88
2018-04-17T20:26:08.937Z,15.67
2018-04-17T20:28:34.845Z,15.56
2018-04-17T20:31:01.341Z,15.66
2018-04-17T20:33:27.233Z,15.58
2018-04-17T20:35:53.182Z,15.51
2018-04-17T20:38:19.180Z,15.54
2018-04-17T20:40:45.228Z,15.41
2018-04-17T20:43:11.183Z,15.51
2018-04-17T20:45:37.171Z,15.35
2018-04-17T20:48:03.866Z,15.33
2018-04-17T20:50:30.806Z,15.35
2018-04-17T20:52:57.408Z,15.31
2018-04-17T20:55:24.225Z,15.46
2018-04-17T20:57:50.174Z,15.39
2018-04-17T21:00:16.128Z,15.25
2018-04-17T21:02:42.194Z,15.25
2018-04-17T21:05:08.285Z,15.33
2018-04-17T21:07:36.608Z,15.20
2018-04-17T21:10:02.713Z,15.15
2018-04-17T21:12:28.743Z,15.11
2018-04-17T21:14:54.721Z,15.08
2018-04-17T21:17:20.796Z,14.92
2018-04-17T21:19:47.002Z,15.07
2018-04-17T21:22:12.917Z,15.07
2018-04-17T21:24:38.840Z,15.14
2018-04-17T21:27:04.758Z,15.06
2018-04-17T21:29:31.473Z,14.97
2018-04-17T21:31:57.520Z,15.13
2018-04-17T21:34:24.582Z,14.92
2018-04-17T21:36:50.545Z,14.94
2018-04-17T21:39:16.563Z,14.89
2018-04-17T21:41:43.313Z,14.87
2018-04-17T21:44:09.262Z,14.95
2018-04-17T21:46:35.095Z,14.91
2018-04-17T21:49:01.102Z,14.77
2018-04-17T21:51:26.971Z,14.62
2018-04-17T21:53:53.090Z,14.75
2018-04-17T21:56:19.413Z,14.59
2018-04-17T21:58:45.303Z,14.62
2018-04-17T22:01:12.347Z,14.59
2018-04-17T22:03:38.561Z,14.69
2018-04-17T22:06:04.732Z,14.64
2018-04-17T22:08:30.760Z,14.53
2018-04-17T22:10:57.526Z,14.52
2018-04-17T22:13:23.426Z,14.52
2018-04-17T22:15:49.465Z,14.39
2018-04-17T22:18:15.365Z,14.47
2018-04-17T22:20:41.240Z,14.39
2018-04-17T22:23:07.630Z,14.50
2018-04-17T22:25:33.464Z,14.57
2018-04-17T22:27:59.321Z,14.39
2018-04-17T22:30:25.283Z,14.12
2018-04-17T22:32:51.522Z,13.95
2018-04-17T22:35:19.045Z,13.97
2018-04-17T22:37:45.573Z,13.70
2018-04-17T22:40:12.357Z,13.57
2018-04-17T22:42:38.917Z,13.56
2018-04-17T22:45:05.407Z,13.63
2018-04-17T22:47:31.249Z,13.64
2018-04-17T22:49:57.144Z,13.64
2018-04-17T22:52:23.117Z,13.64
2018-04-17T22:54:49.665Z,13.61
2018-04-17T22:57:15.765Z,13.65
2018-04-17T22:59:41.595Z,13.53
2018-04-17T23:02:07.593Z,13.34
2018-04-17T23:04:33.724Z,13.32
2018-04-17T23:07:00.905Z,13.30
2018-04-17T23:09:27.697Z,13.26
2018-04-17T23:11:53.506Z,13.24
2018-04-17T23:14:19.302Z,13.24
2018-04-17T23:16:46.048Z,13.22
2018-04-17T23:19:13.743Z,13.27
2018-04-17T23:21:39.574Z,13.40
2018-04-17T23:24:05.400Z,13.48
2018-04-17T23:26:31.304Z,13.47
2018-04-17T23:28:57.900Z,13.40
2018-04-17T23:31:23.929Z,13.51
2018-04-17T23:33:49.720Z,13.40
2018-04-17T23:36:15.514Z,13.42
2018-04-17T23:38:41.494Z,13.43
2018-04-17T23:41:07.269Z,13.46
2018-04-17T23:43:33.057Z,13.64
2018-04-17T23:45:58.855Z,13.40
2018-04-17T23:48:24.625Z,13.31
2018-04-17T23:50:50.405Z,13.33
2018-04-17T23:53:16.208Z,13.15
2018-04-17T23:55:41.993Z,13.34
2018-04-17T23:58:07.769Z,13.25
